Time;durP1;ratioP1;P1;durP2;ratioP2;P2;SDS_P1;SDS_P2;PMS_P1;PMS_P2;Temp;Humidity;BMP_temperature;BMP_pressure;BME280_temperature;BME280_humidity;BME280_pressure;Samples;Min_cycle;Max_cycle;Signal;HPM_P1;HPM_P2
2021/09/20 00:00:03;;;;;;;3.00;2.27;;;13.90;99.90;;;;;;5036602;28;20448;-45
2021/09/20 00:02:29;;;;;;;5.40;1.80;;;13.90;99.90;;;;;;5037428;28;20487;-48
2021/09/20 00:04:56;;;;;;;2.87;1.80;;;13.90;99.90;;;;;;5039900;28;20448;-52
2021/09/20 00:07:22;;;;;;;5.13;2.10;;;13.90;99.90;;;;;;5040280;28;20480;-45
2021/09/20 00:09:49;;;;;;;2.80;2.00;;;13.90;99.90;;;;;;5040194;28;20436;-47
2021/09/20 00:12:16;;;;;;;5.03;2.07;;;13.90;99.90;;;;;;5039631;28;20460;-43
2021/09/20 00:14:42;;;;;;;2.33;1.83;;;13.90;99.90;;;;;;5039795;28;20509;-48
2021/09/20 00:17:10;;;;;;;8.60;1.80;;;13.90;99.90;;;;;;5040075;28;20463;-44
2021/09/20 00:19:37;;;;;;;4.37;2.00;;;13.90;99.90;;;;;;5039285;28;20555;-50
2021/09/20 00:22:04;;;;;;;2.70;1.97;;;13.90;99.90;;;;;;5039579;28;20526;-48
2021/09/20 00:24:31;;;;;;;4.33;1.70;;;13.90;99.90;;;;;;5039781;28;20499;-44
2021/09/20 00:26:57;;;;;;;3.10;2.40;;;13.90;99.90;;;;;;5039570;28;20491;-47
2021/09/20 00:29:24;;;;;;;2.30;1.77;;;13.90;99.90;;;;;;5039228;28;20522;-46
2021/09/20 00:31:51;;;;;;;2.33;1.60;;;13.90;99.90;;;;;;5038928;28;20463;-47
2021/09/20 00:34:19;;;;;;;3.97;2.40;;;13.90;99.90;;;;;;5039518;28;20460;-51
2021/09/20 00:36:45;;;;;;;2.33;2.10;;;13.90;99.90;;;;;;5039458;28;20448;-51
2021/09/20 00:39:12;;;;;;;2.13;1.40;;;13.90;99.90;;;;;;5038339;28;20452;-46
2021/09/20 00:41:39;;;;;;;2.60;1.80;;;13.90;99.90;;;;;;5039301;28;20510;-51
2021/09/20 00:44:05;;;;;;;3.67;3.03;;;13.90;99.90;;;;;;5038584;28;20459;-53
2021/09/20 00:46:32;;;;;;;2.47;2.17;;;13.90;99.90;;;;;;5038843;28;20955;-45
2021/09/20 00:48:59;;;;;;;2.10;1.50;;;13.90;99.90;;;;;;5038536;28;20541;-43
2021/09/20 00:51:27;;;;;;;4.27;2.27;;;13.80;99.90;;;;;;5038495;28;20502;-47
2021/09/20 00:53:53;;;;;;;1.77;1.63;;;13.80;99.90;;;;;;5038116;28;20510;-46
2021/09/20 00:56:21;;;;;;;2.27;1.53;;;13.80;99.90;;;;;;5038781;28;20514;-45
2021/09/20 00:58:47;;;;;;;4.10;1.73;;;13.80;99.90;;;;;;5038922;28;20498;-47
2021/09/20 01:01:14;;;;;;;2.03;1.60;;;13.80;99.90;;;;;;5038531;28;20541;-51
2021/09/20 01:03:41;;;;;;;1.80;1.40;;;13.80;99.90;;;;;;5038885;28;20447;-45
2021/09/20 01:06:08;;;;;;;3.27;1.60;;;13.80;99.90;;;;;;5039558;28;20529;-47
2021/09/20 01:08:39;;;;;;;2.40;1.73;;;13.80;99.90;;;;;;5038796;28;20538;-44
2021/09/20 01:11:06;;;;;;;3.47;2.13;;;13.80;99.90;;;;;;5039194;28;20468;-47
2021/09/20 01:13:32;;;;;;;2.10;1.90;;;13.80;99.90;;;;;;5038042;28;20494;-46
2021/09/20 01:15:59;;;;;;;3.00;2.00;;;13.80;99.90;;;;;;5038337;28;20444;-51
2021/09/20 01:18:28;;;;;;;3.47;2.37;;;13.80;99.90;;;;;;5037961;28;20483;-49
2021/09/20 01:20:55;;;;;;;2.70;2.00;;;13.80;99.90;;;;;;5037740;28;20494;-51
2021/09/20 01:23:24;;;;;;;2.47;1.60;;;13.80;99.90;;;;;;5038658;28;20913;-44
2021/09/20 01:25:50;;;;;;;3.10;1.97;;;13.80;99.90;;;;;;5038781;28;20452;-47
2021/09/20 01:28:20;;;;;;;5.33;2.30;;;13.80;99.90;;;;;;5038719;28;20476;-49
2021/09/20 01:30:47;;;;;;;1.83;1.50;;;13.80;99.90;;;;;;5038350;28;20773;-45
2021/09/20 01:33:14;;;;;;;1.83;1.50;;;13.80;99.90;;;;;;5038735;28;20522;-44
2021/09/20 01:35:40;;;;;;;3.10;1.73;;;13.80;99.90;;;;;;5038398;28;20464;-47
2021/09/20 01:38:07;;;;;;;3.33;2.27;;;13.80;99.90;;;;;;5037885;28;20444;-46
2021/09/20 01:40:35;;;;;;;2.93;1.63;;;13.80;99.90;;;;;;5037657;28;20444;-48
2021/09/20 01:43:03;;;;;;;4.00;2.30;;;13.70;99.90;;;;;;5037953;28;21034;-46
2021/09/20 01:45:30;;;;;;;2.00;1.80;;;13.70;99.90;;;;;;5037873;28;20777;-47
2021/09/20 01:47:56;;;;;;;2.97;1.90;;;13.70;99.90;;;;;;5038253;28;20479;-49
2021/09/20 01:50:23;;;;;;;4.20;2.30;;;13.70;99.90;;;;;;5037932;28;20460;-47
2021/09/20 01:52:50;;;;;;;2.53;1.83;;;13.70;99.90;;;;;;5037891;28;20491;-52
2021/09/20 01:55:16;;;;;;;2.20;1.67;;;13.70;99.90;;;;;;5038778;28;20485;-51
2021/09/20 01:57:45;;;;;;;4.10;2.10;;;13.70;99.90;;;;;;5037905;28;20986;-50
2021/09/20 02:00:13;;;;;;;5.63;1.87;;;13.70;99.90;;;;;;5037399;28;20835;-50
2021/09/20 02:02:41;;;;;;;2.07;1.87;;;13.70;99.90;;;;;;5037430;28;20484;-47
2021/09/20 02:05:09;;;;;;;2.73;1.70;;;13.70;99.90;;;;;;5037429;28;20448;-49
2021/09/20 02:07:36;;;;;;;2.97;2.27;;;13.60;99.90;;;;;;5037330;28;20541;-49
2021/09/20 02:10:04;;;;;;;3.47;1.97;;;13.60;99.90;;;;;;5037775;28;20452;-51
2021/09/20 02:12:34;;;;;;;4.43;2.17;;;13.70;99.90;;;;;;5037335;28;20435;-44
2021/09/20 02:15:03;;;;;;;4.73;2.20;;;13.70;99.90;;;;;;5037626;28;20448;-48
2021/09/20 02:17:30;;;;;;;3.40;1.60;;;13.70;99.90;;;;;;5037392;28;20439;-47
2021/09/20 02:20:00;;;;;;;6.33;2.03;;;13.70;99.90;;;;;;5037335;28;20486;-45
2021/09/20 02:22:27;;;;;;;3.00;1.90;;;13.70;99.90;;;;;;5036821;28;20494;-47
2021/09/20 02:24:57;;;;;;;3.93;2.30;;;13.70;99.90;;;;;;5036505;28;20444;-50
2021/09/20 02:27:24;;;;;;;3.20;2.53;;;13.70;99.90;;;;;;5037211;28;20522;-47
2021/09/20 02:29:51;;;;;;;2.33;1.90;;;13.70;99.90;;;;;;5037670;28;20502;-46
2021/09/20 02:32:19;;;;;;;2.43;2.10;;;13.60;99.90;;;;;;5037773;28;20444;-44
2021/09/20 02:34:46;;;;;;;3.10;2.40;;;13.60;99.90;;;;;;5037946;28;20460;-48
2021/09/20 02:37:19;;;;;;;4.90;2.73;;;13.60;99.90;;;;;;5037855;28;20526;-47
2021/09/20 02:39:46;;;;;;;3.03;1.97;;;13.60;99.90;;;;;;5037934;28;20839;-44
2021/09/20 02:42:12;;;;;;;3.53;1.80;;;13.60;99.90;;;;;;5037696;28;20514;-44
2021/09/20 02:44:39;;;;;;;2.27;1.90;;;13.60;99.90;;;;;;5038246;28;20521;-44
2021/09/20 02:47:06;;;;;;;2.00;1.80;;;13.60;99.90;;;;;;5037199;28;20448;-43
2021/09/20 02:49:34;;;;;;;4.07;2.03;;;13.60;99.90;;;;;;5038029;28;20902;-45
2021/09/20 02:52:00;;;;;;;4.33;2.10;;;13.60;99.90;;;;;;5036895;28;20924;-44
2021/09/20 02:54:27;;;;;;;4.67;2.53;;;13.60;99.90;;;;;;5037199;28;20447;-44
2021/09/20 02:56:54;;;;;;;3.30;1.60;;;13.60;99.90;;;;;;5036922;28;20456;-46
2021/09/20 02:59:20;;;;;;;2.90;2.00;;;13.60;99.90;;;;;;5036348;28;20985;-45
2021/09/20 03:01:47;;;;;;;9.30;2.97;;;13.60;99.90;;;;;;5036881;28;20529;-47
2021/09/20 03:04:14;;;;;;;3.33;1.60;;;13.60;99.90;;;;;;5036829;28;20437;-44
2021/09/20 03:06:42;;;;;;;3.50;2.83;;;13.60;99.90;;;;;;5036579;28;20478;-46
2021/09/20 03:09:08;;;;;;;3.03;2.20;;;13.60;99.90;;;;;;5036168;28;20888;-44
2021/09/20 03:11:35;;;;;;;3.63;2.30;;;13.60;99.90;;;;;;5036736;28;20967;-52
2021/09/20 03:14:02;;;;;;;4.43;2.20;;;13.50;99.90;;;;;;5036246;28;20452;-50
2021/09/20 03:16:29;;;;;;;3.07;1.77;;;13.50;99.90;;;;;;5035950;28;20448;-46
2021/09/20 03:18:55;;;;;;;2.80;1.80;;;13.50;99.90;;;;;;5036335;28;20678;-46
2021/09/20 03:21:24;;;;;;;2.80;2.03;;;13.50;99.90;;;;;;5036168;28;20448;-48
2021/09/20 03:23:52;;;;;;;3.60;2.60;;;13.50;99.90;;;;;;5036381;28;20544;-49
2021/09/20 03:26:19;;;;;;;3.13;2.73;;;13.50;99.90;;;;;;5036675;28;20506;-49
2021/09/20 03:28:45;;;;;;;3.57;2.23;;;13.60;99.90;;;;;;5036496;28;20484;-51
2021/09/20 03:31:12;;;;;;;4.13;2.40;;;13.60;99.90;;;;;;5035894;28;20452;-45
2021/09/20 03:33:39;;;;;;;4.07;2.30;;;13.50;99.90;;;;;;5035949;28;20445;-44
2021/09/20 03:36:06;;;;;;;10.33;2.47;;;13.60;99.90;;;;;;5036439;28;20443;-50
2021/09/20 03:38:32;;;;;;;6.27;2.50;;;13.60;99.90;;;;;;5040175;28;20465;-46
2021/09/20 03:41:04;;;;;;;2.33;2.13;;;13.60;99.90;;;;;;5040755;28;20455;-50
2021/09/20 03:43:30;;;;;;;2.00;1.77;;;13.60;99.90;;;;;;5040231;28;20505;-51
2021/09/20 03:45:57;;;;;;;4.90;2.63;;;13.50;99.90;;;;;;5040440;28;20473;-52
2021/09/20 03:48:24;;;;;;;3.33;2.10;;;13.50;99.90;;;;;;5039516;28;20650;-47
2021/09/20 03:50:50;;;;;;;5.57;2.53;;;13.50;99.90;;;;;;5040245;28;20448;-49
2021/09/20 03:53:17;;;;;;;7.97;3.27;;;13.50;99.90;;;;;;5040071;28;20466;-48
2021/09/20 03:55:44;;;;;;;3.23;2.93;;;13.50;99.90;;;;;;5039999;28;20456;-47
2021/09/20 03:58:12;;;;;;;5.17;2.50;;;13.50;99.90;;;;;;5040398;28;20440;-48
2021/09/20 04:00:38;;;;;;;3.57;2.23;;;13.50;99.90;;;;;;5039885;28;20510;-46
2021/09/20 04:03:05;;;;;;;4.07;2.40;;;13.50;99.90;;;;;;5040660;28;20533;-49
2021/09/20 04:05:32;;;;;;;2.80;2.23;;;13.50;99.90;;;;;;5039818;28;20456;-47
2021/09/20 04:07:58;;;;;;;3.70;2.60;;;13.50;99.90;;;;;;5040009;28;20459;-45
2021/09/20 04:10:25;;;;;;;5.30;2.10;;;13.50;99.90;;;;;;5040571;28;20444;-48
2021/09/20 04:12:52;;;;;;;4.00;1.70;;;13.50;99.90;;;;;;5039798;28;20463;-52
2021/09/20 04:15:20;;;;;;;2.37;1.80;;;13.50;99.90;;;;;;5040408;28;20750;-44
2021/09/20 04:17:47;;;;;;;4.40;2.33;;;13.50;99.90;;;;;;5040588;28;20478;-50
2021/09/20 04:20:14;;;;;;;16.97;3.23;;;13.50;99.90;;;;;;5040650;28;20845;-44
2021/09/20 04:22:42;;;;;;;3.47;1.93;;;13.50;99.90;;;;;;5040156;28;20782;-49
2021/09/20 04:25:10;;;;;;;4.97;2.33;;;13.50;99.90;;;;;;5040037;28;20455;-46
2021/09/20 04:27:37;;;;;;;4.30;2.70;;;13.50;99.90;;;;;;5040194;28;20452;-51
2021/09/20 04:30:04;;;;;;;4.20;2.30;;;13.40;99.90;;;;;;5039508;28;20960;-51
2021/09/20 04:32:33;;;;;;;3.80;2.17;;;13.40;99.90;;;;;;5039982;28;20448;-46
2021/09/20 04:34:59;;;;;;;3.50;2.27;;;13.40;99.90;;;;;;5039559;28;20530;-47
2021/09/20 04:37:26;;;;;;;2.57;1.80;;;13.40;99.90;;;;;;5039722;28;20487;-46
2021/09/20 04:39:53;;;;;;;2.77;2.10;;;13.40;99.90;;;;;;5040218;28;20819;-44
2021/09/20 04:42:19;;;;;;;4.17;2.40;;;13.40;99.90;;;;;;5040050;28;20502;-45
2021/09/20 04:44:46;;;;;;;4.20;2.43;;;13.40;99.90;;;;;;5039828;28;20463;-43
2021/09/20 04:47:13;;;;;;;4.37;2.50;;;13.40;99.90;;;;;;5039896;28;20939;-45
2021/09/20 04:49:41;;;;;;;4.20;2.70;;;13.40;99.90;;;;;;5039407;28;20538;-49
2021/09/20 04:52:08;;;;;;;3.63;2.33;;;13.40;99.90;;;;;;5040014;28;20777;-47
2021/09/20 04:54:35;;;;;;;5.17;2.50;;;13.40;99.90;;;;;;5038589;28;20464;-43
2021/09/20 04:57:04;;;;;;;2.60;1.90;;;13.40;99.90;;;;;;5038307;28;20444;-46
2021/09/20 04:59:30;;;;;;;5.43;2.60;;;13.40;99.90;;;;;;5039056;28;20877;-44
2021/09/20 05:01:57;;;;;;;7.70;3.20;;;13.40;99.90;;;;;;5039034;28;20514;-48
2021/09/20 05:04:24;;;;;;;3.30;2.33;;;13.40;99.90;;;;;;5038729;28;20518;-50
2021/09/20 05:06:51;;;;;;;3.33;2.37;;;13.40;99.90;;;;;;5038750;28;20452;-48
2021/09/20 05:09:18;;;;;;;3.63;2.27;;;13.40;99.90;;;;;;5038571;28;20553;-51
2021/09/20 05:11:45;;;;;;;7.00;2.63;;;13.40;99.90;;;;;;5038333;28;20456;-44
2021/09/20 05:14:11;;;;;;;3.17;2.20;;;13.40;99.90;;;;;;5038747;28;20448;-45
2021/09/20 05:16:38;;;;;;;4.33;2.10;;;13.40;99.90;;;;;;5038257;28;20936;-47
2021/09/20 05:19:06;;;;;;;5.23;2.33;;;13.40;99.90;;;;;;5038466;28;20452;-46
2021/09/20 05:21:33;;;;;;;3.60;2.00;;;13.40;99.90;;;;;;5039366;28;20505;-44
2021/09/20 05:24:00;;;;;;;3.13;2.63;;;13.40;99.90;;;;;;5038184;28;20449;-44
2021/09/20 05:26:27;;;;;;;3.80;2.50;;;13.40;99.90;;;;;;5037875;28;20448;-46
2021/09/20 05:28:54;;;;;;;2.77;1.87;;;13.40;99.90;;;;;;5038562;28;20475;-51
2021/09/20 05:31:20;;;;;;;3.40;1.93;;;13.40;99.90;;;;;;5038644;28;20774;-47
2021/09/20 05:33:49;;;;;;;4.30;2.97;;;13.40;99.90;;;;;;5039832;28;20845;-42
2021/09/20 05:36:16;;;;;;;4.43;2.73;;;13.40;99.90;;;;;;5039468;28;20452;-43
2021/09/20 05:38:42;;;;;;;4.60;2.17;;;13.50;99.90;;;;;;5040221;28;20446;-44
2021/09/20 05:41:10;;;;;;;8.37;2.40;;;13.50;99.90;;;;;;5039876;28;20514;-44
2021/09/20 05:43:37;;;;;;;3.10;1.97;;;13.50;99.90;;;;;;5039417;28;20448;-45
2021/09/20 05:46:06;;;;;;;5.93;2.27;;;13.50;99.90;;;;;;5039951;28;20467;-49
2021/09/20 05:48:33;;;;;;;5.60;2.83;;;13.50;99.90;;;;;;5039282;28;20455;-47
2021/09/20 05:51:00;;;;;;;3.77;2.37;;;13.50;99.90;;;;;;5039382;28;20502;-48
2021/09/20 05:53:26;;;;;;;3.00;2.30;;;13.50;99.90;;;;;;5039666;28;20486;-45
2021/09/20 05:55:53;;;;;;;6.17;1.87;;;13.50;99.90;;;;;;5038981;28;20448;-49
2021/09/20 05:58:24;;;;;;;4.43;2.57;;;13.50;99.90;;;;;;5039646;28;20502;-50
2021/09/20 06:00:51;;;;;;;4.10;2.60;;;13.50;99.90;;;;;;5038221;28;20444;-51
2021/09/20 06:03:18;;;;;;;5.07;2.33;;;13.50;99.90;;;;;;5038818;28;20800;-46
2021/09/20 06:05:45;;;;;;;3.30;2.33;;;13.50;99.90;;;;;;5038696;28;20455;-47
2021/09/20 06:08:11;;;;;;;3.63;2.47;;;13.60;99.90;;;;;;5038923;28;20444;-46
2021/09/20 06:10:39;;;;;;;3.60;2.43;;;13.60;99.90;;;;;;5039051;28;20480;-42
2021/09/20 06:13:07;;;;;;;4.63;2.60;;;13.70;99.90;;;;;;5038866;28;20586;-46
2021/09/20 06:15:36;;;;;;;2.33;2.00;;;13.70;99.90;;;;;;5039017;28;20543;-44
2021/09/20 06:18:02;;;;;;;2.93;2.40;;;13.80;99.90;;;;;;5039257;28;20460;-43
2021/09/20 06:20:29;;;;;;;3.60;2.60;;;13.80;99.90;;;;;;5039045;28;20505;-49
2021/09/20 06:22:56;;;;;;;4.40;2.93;;;13.90;99.90;;;;;;5039059;28;20800;-45
2021/09/20 06:25:23;;;;;;;3.83;2.80;;;13.90;99.90;;;;;;5038837;28;20443;-52
2021/09/20 06:27:50;;;;;;;3.10;2.10;;;13.90;99.90;;;;;;5038428;28;20548;-42
2021/09/20 06:30:17;;;;;;;4.57;3.10;;;14.00;99.90;;;;;;5038056;28;20480;-50
2021/09/20 06:32:45;;;;;;;4.30;2.47;;;14.00;99.90;;;;;;5038298;28;20754;-45
2021/09/20 06:35:13;;;;;;;3.77;2.77;;;14.00;99.90;;;;;;5037931;28;20456;-44
2021/09/20 06:37:41;;;;;;;3.23;2.33;;;14.10;99.90;;;;;;5038123;28;20516;-43
2021/09/20 06:40:10;;;;;;;4.37;2.63;;;14.10;99.90;;;;;;5038147;28;20494;-46
2021/09/20 06:42:37;;;;;;;3.57;2.20;;;14.20;99.90;;;;;;5037739;28;20448;-46
2021/09/20 06:45:04;;;;;;;3.33;2.40;;;14.30;99.90;;;;;;5038274;28;20448;-42
2021/09/20 06:47:31;;;;;;;3.40;2.23;;;14.30;99.90;;;;;;5037707;28;20506;-48
2021/09/20 06:50:00;;;;;;;3.67;2.37;;;14.40;99.90;;;;;;5038010;28;20475;-47
2021/09/20 06:52:27;;;;;;;6.23;2.50;;;14.40;99.90;;;;;;5037730;28;20812;-45
2021/09/20 06:54:54;;;;;;;13.00;3.20;;;14.50;99.90;;;;;;5038172;28;20447;-46
2021/09/20 06:57:21;;;;;;;4.37;2.60;;;14.50;99.90;;;;;;5038398;28;20975;-46
2021/09/20 06:59:48;;;;;;;4.73;2.07;;;14.60;99.90;;;;;;5037849;28;20452;-45
2021/09/20 07:02:15;;;;;;;3.70;2.50;;;14.60;99.90;;;;;;5037926;28;20487;-49
2021/09/20 07:04:41;;;;;;;7.23;2.60;;;14.70;99.90;;;;;;5038001;28;20530;-47
2021/09/20 07:07:12;;;;;;;6.20;2.87;;;14.80;99.90;;;;;;5037472;28;20452;-45
2021/09/20 07:09:39;;;;;;;3.43;2.53;;;14.90;99.90;;;;;;5037800;28;20492;-46
2021/09/20 07:12:06;;;;;;;5.60;3.00;;;15.00;99.90;;;;;;5043269;28;20458;-47
2021/09/20 07:14:33;;;;;;;4.83;2.80;;;15.00;99.90;;;;;;5044142;28;20451;-42
2021/09/20 07:17:00;;;;;;;4.33;2.60;;;15.10;99.90;;;;;;5044512;28;20813;-50
2021/09/20 07:19:27;;;;;;;6.33;3.00;;;15.10;99.90;;;;;;5044072;28;20443;-47
2021/09/20 07:21:54;;;;;;;4.27;2.23;;;15.20;99.90;;;;;;5043938;28;20464;-47
2021/09/20 07:24:22;;;;;;;3.10;2.03;;;15.30;99.90;;;;;;5043837;28;20924;-48
2021/09/20 07:26:49;;;;;;;4.00;2.70;;;15.40;99.90;;;;;;5043713;28;20464;-45
2021/09/20 07:29:16;;;;;;;5.03;2.67;;;15.50;99.90;;;;;;5043550;28;20476;-48
2021/09/20 07:31:43;;;;;;;2.13;1.83;;;15.60;99.90;;;;;;5044219;28;20480;-49
2021/09/20 07:34:09;;;;;;;4.13;2.27;;;15.70;99.90;;;;;;5043968;28;20447;-48
2021/09/20 07:36:36;;;;;;;3.27;2.33;;;15.80;99.90;;;;;;5043877;28;20494;-44
2021/09/20 07:39:03;;;;;;;5.20;2.27;;;15.80;99.90;;;;;;5044154;28;20443;-46
2021/09/20 07:41:31;;;;;;;8.03;2.53;;;15.90;99.90;;;;;;5043613;28;20447;-43
2021/09/20 07:43:58;;;;;;;3.67;2.10;;;16.00;99.90;;;;;;5043558;28;20860;-44
2021/09/20 07:46:25;;;;;;;4.23;2.60;;;16.10;99.90;;;;;;5044003;28;20931;-42
2021/09/20 07:48:52;;;;;;;3.60;2.67;;;16.10;99.90;;;;;;5043819;28;20459;-46
2021/09/20 07:51:19;;;;;;;3.90;2.17;;;16.20;99.90;;;;;;5043875;28;20479;-45
2021/09/20 07:53:47;;;;;;;3.50;2.27;;;16.30;99.90;;;;;;5043453;28;20537;-44
2021/09/20 07:56:14;;;;;;;4.60;2.53;;;16.40;99.90;;;;;;5043800;28;20452;-45
2021/09/20 07:58:42;;;;;;;8.80;2.30;;;16.40;99.90;;;;;;5043793;28;20443;-45
2021/09/20 08:01:08;;;;;;;6.90;2.90;;;16.60;99.90;;;;;;5043344;28;20476;-49
2021/09/20 08:03:35;;;;;;;3.50;2.40;;;16.70;99.90;;;;;;5043341;28;20506;-42
2021/09/20 08:06:02;;;;;;;3.73;2.30;;;16.80;99.90;;;;;;5042781;28;20478;-47
2021/09/20 08:08:28;;;;;;;4.30;2.37;;;16.90;99.90;;;;;;5043640;28;20452;-42
2021/09/20 08:10:56;;;;;;;3.90;3.03;;;17.00;99.90;;;;;;5042549;28;20854;-48
2021/09/20 08:13:22;;;;;;;3.10;2.40;;;17.10;99.90;;;;;;5042607;28;20490;-46
2021/09/20 08:15:51;;;;;;;4.87;2.40;;;17.20;99.90;;;;;;5043252;28;20475;-45
2021/09/20 08:18:18;;;;;;;3.67;2.30;;;17.40;99.90;;;;;;5042855;28;20957;-43
2021/09/20 08:20:46;;;;;;;4.10;2.77;;;17.60;99.90;;;;;;5042476;28;20428;-52
2021/09/20 08:23:14;;;;;;;4.57;2.83;;;18.10;99.90;;;;;;5039626;28;20917;-49
2021/09/20 08:25:40;;;;;;;2.73;2.50;;;18.60;99.90;;;;;;5039217;28;20522;-45
2021/09/20 08:28:08;;;;;;;3.30;2.50;;;19.00;99.90;;;;;;5039507;28;20461;-47
2021/09/20 08:30:35;;;;;;;3.43;3.13;;;19.20;99.90;;;;;;5039185;28;20863;-48
2021/09/20 08:33:04;;;;;;;3.10;2.60;;;19.50;99.90;;;;;;5039261;28;20513;-48
2021/09/20 08:35:31;;;;;;;5.00;2.30;;;19.90;99.90;;;;;;5038495;28;20577;-48
2021/09/20 08:37:58;;;;;;;3.07;2.60;;;20.20;99.90;;;;;;5038387;28;20910;-46
2021/09/20 08:40:26;;;;;;;4.97;2.00;;;20.30;99.90;;;;;;5038523;28;20436;-52
2021/09/20 08:42:53;;;;;;;3.20;2.43;;;20.40;99.90;;;;;;5038305;28;20464;-44
2021/09/20 08:45:22;;;;;;;2.40;1.90;;;20.30;99.90;;;;;;5038189;28;20455;-46
2021/09/20 08:47:50;;;;;;;2.80;2.17;;;20.20;98.20;;;;;;5038386;28;20439;-42
2021/09/20 08:50:21;;;;;;;3.17;2.20;;;20.20;97.70;;;;;;5038473;28;20506;-45
2021/09/20 08:52:48;;;;;;;3.53;2.47;;;20.20;97.50;;;;;;5038239;28;20524;-43
2021/09/20 08:55:15;;;;;;;3.87;2.40;;;20.00;96.80;;;;;;5037721;28;20444;-45
2021/09/20 08:57:42;;;;;;;2.77;2.50;;;19.80;97.50;;;;;;5038403;28;20455;-44
2021/09/20 09:00:11;;;;;;;5.50;3.00;;;19.70;97.80;;;;;;5038396;28;20456;-45
2021/09/20 09:02:39;;;;;;;4.80;2.60;;;19.70;98.00;;;;;;5038430;28;20476;-49
2021/09/20 09:05:14;;;;;;;5.03;3.00;;;19.60;97.90;;;;;;5038369;28;20471;-49
2021/09/20 09:07:47;;;;;;;5.07;2.73;;;19.40;98.50;;;;;;5038267;28;20452;-49
2021/09/20 09:10:15;;;;;;;2.90;2.60;;;19.30;98.50;;;;;;5038648;28;20491;-45
2021/09/20 09:12:42;;;;;;;5.87;3.33;;;19.10;98.90;;;;;;5038185;28;20754;-43
2021/09/20 09:15:12;;;;;;;4.37;2.57;;;19.00;99.40;;;;;;5038631;28;20448;-49
2021/09/20 09:17:41;;;;;;;3.23;2.30;;;19.10;99.00;;;;;;5038530;28;20460;-43
2021/09/20 09:20:11;;;;;;;2.67;2.43;;;19.30;98.60;;;;;;5038203;28;20444;-47
2021/09/20 09:22:41;;;;;;;2.90;1.90;;;19.20;98.00;;;;;;5037988;28;20444;-48
2021/09/20 09:25:11;;;;;;;2.77;2.00;;;19.00;98.00;;;;;;5038256;28;20540;-46
2021/09/20 09:27:39;;;;;;;2.50;2.10;;;18.80;97.80;;;;;;5038336;28;20529;-49
2021/09/20 09:30:11;;;;;;;3.77;2.20;;;18.60;98.00;;;;;;5037743;28;20491;-47
2021/09/20 09:32:39;;;;;;;2.43;2.07;;;18.40;98.50;;;;;;5038327;28;20460;-42
2021/09/20 09:35:08;;;;;;;3.73;2.03;;;18.30;98.30;;;;;;5036697;28;20436;-47
2021/09/20 09:37:36;;;;;;;2.60;2.30;;;18.00;98.80;;;;;;5038007;28;20444;-48
2021/09/20 09:40:20;;;;;;;2.70;1.90;;;17.80;99.80;;;;;;5037733;28;20868;-49
2021/09/20 09:42:48;;;;;;;3.00;2.30;;;17.60;99.90;;;;;;5037258;28;20458;-48
2021/09/20 09:45:18;;;;;;;3.60;2.20;;;17.40;99.90;;;;;;5038165;28;20451;-45
2021/09/20 09:47:45;;;;;;;4.00;2.90;;;17.20;99.90;;;;;;5038076;28;20499;-49
2021/09/20 09:50:14;;;;;;;4.10;2.27;;;17.70;99.90;;;;;;5037792;28;20480;-49
2021/09/20 09:52:42;;;;;;;2.83;2.00;;;18.20;99.90;;;;;;5037705;28;20514;-44
2021/09/20 09:55:09;;;;;;;2.30;1.60;;;18.40;99.30;;;;;;5037779;28;20460;-48
2021/09/20 09:57:37;;;;;;;2.83;2.10;;;18.60;99.70;;;;;;5037429;28;20905;-48
2021/09/20 10:00:07;;;;;;;4.47;3.00;;;19.40;97.80;;;;;;5037432;28;20452;-44
2021/09/20 10:02:36;;;;;;;45.70;31.00;;;20.80;96.50;;;;;;5036753;28;20479;-43
2021/09/20 10:05:05;;;;;;;29.63;19.40;;;22.20;93.20;;;;;;5036906;28;20790;-43
2021/09/20 10:07:34;;;;;;;4.87;3.40;;;22.80;88.60;;;;;;5036716;28;20460;-46
2021/09/20 10:10:04;;;;;;;8.13;5.17;;;22.40;85.30;;;;;;5036735;28;20510;-48
2021/09/20 10:12:31;;;;;;;3.30;2.23;;;21.70;85.10;;;;;;5036950;28;20444;-46
2021/09/20 10:15:01;;;;;;;2.73;1.60;;;21.10;86.20;;;;;;5036626;28;20556;-49
2021/09/20 10:17:29;;;;;;;3.63;2.30;;;20.40;87.70;;;;;;5037023;28;20548;-45
2021/09/20 10:19:57;;;;;;;3.63;2.23;;;19.60;90.60;;;;;;5037069;28;20464;-45
2021/09/20 10:22:25;;;;;;;2.50;2.10;;;19.10;91.90;;;;;;5037005;28;20920;-46
2021/09/20 10:24:54;;;;;;;2.97;2.20;;;18.60;92.90;;;;;;5036927;28;20452;-46
2021/09/20 10:27:22;;;;;;;5.67;3.97;;;18.30;94.30;;;;;;5036324;28;20463;-47
2021/09/20 10:29:53;;;;;;;5.57;2.80;;;18.00;94.40;;;;;;5036779;28;20789;-46
2021/09/20 10:32:22;;;;;;;5.20;2.80;;;17.70;95.90;;;;;;5036776;28;20455;-48
2021/09/20 10:34:49;;;;;;;3.10;2.60;;;17.50;97.70;;;;;;5037017;28;20440;-45
2021/09/20 10:37:23;;;;;;;3.80;2.27;;;17.30;98.70;;;;;;5037304;28;20500;-44
2021/09/20 10:39:56;;;;;;;3.87;3.03;;;17.20;99.30;;;;;;5037388;28;20498;-43
2021/09/20 10:42:56;;;;;;;4.53;2.30;;;17.10;99.90;;;;;;5037239;28;20483;-45
2021/09/20 10:45:38;;;;;;;3.37;2.07;;;17.00;99.90;;;;;;5036893;28;20449;-46
2021/09/20 10:48:20;;;;;;;3.67;2.70;;;16.90;99.90;;;;;;5037126;28;20448;-44
2021/09/20 10:50:49;;;;;;;4.87;3.23;;;16.80;99.90;;;;;;5037370;28;20465;-44
2021/09/20 10:53:17;;;;;;;4.03;3.10;;;16.80;99.90;;;;;;5036959;28;20444;-50
2021/09/20 10:56:16;;;;;;;6.77;2.77;;;16.70;99.90;;;;;;5037053;28;21007;-51
2021/09/20 10:58:45;;;;;;;3.17;2.67;;;16.70;99.90;;;;;;5036763;28;20433;-50
2021/09/20 11:01:28;;;;;;;2.93;1.80;;;16.60;99.90;;;;;;5036599;28;20558;-46
2021/09/20 11:03:59;;;;;;;3.10;2.80;;;16.60;99.90;;;;;;5036981;28;20440;-46
2021/09/20 11:06:27;;;;;;;4.83;2.00;;;16.60;99.90;;;;;;5036757;28;20428;-46
2021/09/20 11:09:32;;;;;;;5.20;3.20;;;16.60;99.90;;;;;;5036780;28;20448;-51
2021/09/20 11:12:18;;;;;;;3.17;1.73;;;16.60;99.90;;;;;;5036586;28;20823;-49
2021/09/20 11:14:49;;;;;;;3.37;2.00;;;16.60;99.90;;;;;;5036865;28;20443;-48
2021/09/20 11:17:44;;;;;;;3.60;2.70;;;16.60;99.90;;;;;;5037257;28;20448;-45
2021/09/20 11:20:37;;;;;;;3.77;2.57;;;16.70;99.90;;;;;;5031488;28;20491;-46
2021/09/20 11:23:33;;;;;;;3.90;2.30;;;16.80;99.90;;;;;;5036576;28;20445;-46
2021/09/20 11:26:21;;;;;;;3.87;2.77;;;16.80;99.90;;;;;;5036579;28;20502;-52
2021/09/20 11:28:53;;;;;;;3.20;2.50;;;16.90;99.90;;;;;;5037007;28;20429;-51
2021/09/20 11:31:27;;;;;;;4.53;2.70;;;17.00;99.90;;;;;;5037075;28;20480;-42
2021/09/20 11:33:54;;;;;;;4.80;2.20;;;17.10;99.90;;;;;;5036770;28;20454;-45
2021/09/20 11:36:29;;;;;;;2.47;2.23;;;17.10;99.90;;;;;;5036978;28;20491;-48
2021/09/20 11:39:14;;;;;;;3.33;2.30;;;17.20;99.90;;;;;;5036566;28;20447;-45
2021/09/20 11:41:44;;;;;;;8.00;2.90;;;17.30;99.90;;;;;;5036124;28;20510;-44
2021/09/20 11:44:13;;;;;;;3.33;2.60;;;17.40;99.90;;;;;;5036771;28;20570;-45
2021/09/20 11:46:40;;;;;;;3.57;2.83;;;17.40;99.90;;;;;;5036999;28;20458;-44
2021/09/20 11:49:09;;;;;;;3.87;3.30;;;17.40;99.90;;;;;;5036853;28;20502;-42
2021/09/20 11:51:37;;;;;;;5.80;2.87;;;17.50;99.90;;;;;;5036756;28;20480;-48
2021/09/20 11:54:05;;;;;;;4.90;2.50;;;17.50;99.90;;;;;;5036533;28;20530;-44
2021/09/20 11:56:31;;;;;;;2.97;2.40;;;17.60;99.90;;;;;;5036459;28;20444;-49
2021/09/20 11:59:00;;;;;;;2.93;2.50;;;17.60;99.90;;;;;;5039189;28;20444;-46
2021/09/20 12:01:28;;;;;;;4.63;3.03;;;17.60;99.90;;;;;;5040016;28;20480;-49
2021/09/20 12:03:56;;;;;;;3.03;2.27;;;17.70;99.90;;;;;;5040342;28;20522;-45
2021/09/20 12:06:27;;;;;;;4.00;2.87;;;17.70;99.90;;;;;;5040392;28;20448;-45
2021/09/20 12:08:57;;;;;;;3.20;2.37;;;17.70;99.90;;;;;;5040307;28;20467;-52
2021/09/20 12:11:25;;;;;;;3.57;3.10;;;17.70;99.90;;;;;;5040380;28;21007;-47
2021/09/20 12:13:52;;;;;;;3.20;2.63;;;17.70;99.90;;;;;;5040066;28;20452;-52
2021/09/20 12:16:19;;;;;;;4.33;2.50;;;17.70;99.90;;;;;;5039934;28;20834;-52
2021/09/20 12:18:46;;;;;;;5.70;2.90;;;17.50;99.90;;;;;;5040170;28;20848;-45
2021/09/20 12:21:15;;;;;;;5.00;3.20;;;17.50;99.90;;;;;;5039961;28;20455;-47
2021/09/20 12:23:44;;;;;;;7.03;3.40;;;17.60;99.90;;;;;;5040039;28;20517;-50
2021/09/20 12:26:14;;;;;;;5.03;3.20;;;17.50;99.90;;;;;;5039573;28;20448;-45
2021/09/20 12:28:43;;;;;;;4.40;2.40;;;17.60;99.90;;;;;;5039739;28;20444;-45
2021/09/20 12:31:12;;;;;;;3.63;2.20;;;17.60;99.90;;;;;;5039732;28;20549;-49
2021/09/20 12:33:52;;;;;;;3.87;2.50;;;17.60;99.90;;;;;;5039687;28;20782;-49
2021/09/20 12:36:20;;;;;;;3.73;3.27;;;17.50;99.90;;;;;;5039688;28;20448;-44
2021/09/20 12:38:59;;;;;;;3.63;2.47;;;17.50;99.90;;;;;;5040361;28;20444;-47
2021/09/20 12:41:32;;;;;;;3.77;2.17;;;17.50;99.90;;;;;;5040151;28;20435;-42
2021/09/20 12:43:59;;;;;;;2.67;2.27;;;17.50;99.90;;;;;;5039559;28;20457;-45
2021/09/20 12:46:28;;;;;;;23.27;16.47;;;17.50;99.90;;;;;;5039277;28;20578;-45
2021/09/20 12:48:56;;;;;;;73.27;48.47;;;17.50;99.90;;;;;;5039118;28;20456;-44
2021/09/20 12:51:24;;;;;;;11.27;7.93;;;17.40;99.90;;;;;;5039271;28;20494;-46